createdAt,value
2022-08-05T00:00:48.360Z,92264.25
2022-08-05T00:03:22.855Z,92266.38
2022-08-05T00:06:06.426Z,92263.72
2022-08-05T00:14:12.821Z,92257.31
2022-08-05T00:16:53.746Z,92257.91
2022-08-05T00:19:32.944Z,92248.09
2022-08-05T00:22:06.548Z,92256.78
2022-08-05T00:24:43.581Z,92261.34
2022-08-05T00:27:16.912Z,92254.84
2022-08-05T00:29:50.314Z,92245.84
2022-08-05T00:37:10.519Z,92243.69
2022-08-05T00:39:20.383Z,92246.75
2022-08-05T00:41:56.997Z,92239.84
2022-08-05T00:44:30.544Z,92244.03
2022-08-05T00:47:05.898Z,92244.34
2022-08-05T00:49:44.460Z,92247.66
2022-08-05T00:52:28.647Z,92223.63
2022-08-05T01:00:22.190Z,92246.50
2022-08-05T01:02:59.636Z,92243.84
2022-08-05T01:05:32.519Z,92245.06
2022-08-05T01:08:40.529Z,92244.22
2022-08-05T01:11:04.376Z,92242.91
2022-08-05T01:13:58.683Z,92248.38
2022-08-05T01:25:09.364Z,92237.28
2022-08-05T01:28:09.602Z,92241.91
2022-08-05T01:30:53.625Z,92240.69
2022-08-05T01:33:35.608Z,92243.13
2022-08-05T01:36:16.046Z,92237.38
2022-08-05T01:38:50.996Z,92239.50
2022-08-05T01:41:25.720Z,92242.25
2022-08-05T01:49:24.889Z,92225.97
2022-08-05T01:52:01.747Z,92235.34
2022-08-05T01:54:55.616Z,92242.25
2022-08-05T01:58:11.439Z,92233.88
2022-08-05T02:00:30.705Z,92235.88
2022-08-05T02:03:24.621Z,92241.69
2022-08-05T02:06:03.688Z,92245.19
2022-08-05T02:08:58.857Z,92242.03
2022-08-05T02:16:54.582Z,92233.44
2022-08-05T02:19:34.501Z,92235.31
2022-08-05T02:22:17.478Z,92228.50
2022-08-05T02:25:04.865Z,92226.53
2022-08-05T02:27:59.850Z,92225.13
2022-08-05T02:30:37.957Z,92231.66
2022-08-05T02:33:35.935Z,92218.84
2022-08-05T02:41:57.895Z,92224.13
2022-08-05T02:44:35.901Z,92228.81
2022-08-05T02:47:10.843Z,92226.28
2022-08-05T02:49:45.605Z,92220.25
2022-08-05T02:52:30.115Z,92230.44
2022-08-05T02:55:10.665Z,92236.34
2022-08-05T02:58:11.928Z,92233.16
2022-08-05T03:06:54.922Z,92231.16
2022-08-05T03:08:54.548Z,92233.22
2022-08-05T03:11:54.694Z,92226.88
2022-08-05T03:14:21.498Z,92233.66
2022-08-05T03:16:54.203Z,92231.56
2022-08-05T03:19:33.748Z,92236.38
2022-08-05T03:22:16.596Z,92230.84
2022-08-05T03:32:43.836Z,92233.91
2022-08-05T03:35:16.492Z,92234.22
2022-08-05T03:37:51.090Z,92232.38
2022-08-05T03:40:32.094Z,92229.16
2022-08-05T03:43:58.760Z,92226.22
2022-08-05T03:45:59.013Z,92228.16
2022-08-05T03:48:35.557Z,92231.25
2022-08-05T03:57:43.762Z,92224.41
2022-08-05T04:00:17.745Z,92232.00
2022-08-05T04:02:59.010Z,92224.69
2022-08-05T04:05:34.957Z,92228.16
2022-08-05T04:08:14.788Z,92228.59
2022-08-05T04:11:03.884Z,92221.22
2022-08-05T04:13:49.692Z,92221.78
2022-08-05T04:22:10.217Z,92222.81
2022-08-05T04:24:36.091Z,92225.44
2022-08-05T04:27:08.912Z,92222.69
2022-08-05T04:29:41.982Z,92214.50
2022-08-05T04:32:30.556Z,92216.59
2022-08-05T04:35:04.672Z,92216.53
2022-08-05T04:38:02.386Z,92214.44
2022-08-05T04:45:55.218Z,92222.56
2022-08-05T04:48:28.591Z,92222.13
2022-08-05T04:51:03.324Z,92217.31
2022-08-05T04:53:43.492Z,92228.59
2022-08-05T04:56:35.117Z,92218.00
2022-08-05T04:59:21.770Z,92220.88
2022-08-05T05:02:35.101Z,92218.59
2022-08-05T05:10:10.422Z,92218.06
2022-08-05T05:12:43.028Z,92215.13
2022-08-05T05:15:17.325Z,92218.97
2022-08-05T05:18:08.523Z,92219.84
2022-08-05T05:20:42.911Z,92212.81
2022-08-05T05:23:19.745Z,92207.97
2022-08-05T05:25:53.254Z,92217.13
2022-08-05T05:28:26.020Z,92208.97
2022-08-05T05:31:01.596Z,92210.97
2022-08-05T05:41:40.353Z,92209.81
2022-08-05T05:44:35.875Z,92212.63
2022-08-05T05:47:13.183Z,92213.88
2022-08-05T05:49:56.873Z,92208.72
2022-08-05T05:52:37.975Z,92224.63
2022-08-05T05:55:14.704Z,92218.22
2022-08-05T05:57:52.850Z,92221.69
2022-08-05T06:05:45.955Z,92215.28
2022-08-05T06:08:32.700Z,92221.69
2022-08-05T06:11:06.209Z,92220.59
2022-08-05T06:13:40.730Z,92230.03
2022-08-05T06:16:29.200Z,92222.78
2022-08-05T06:19:07.141Z,92226.53
2022-08-05T06:21:49.939Z,92227.25
2022-08-05T06:29:49.578Z,92224.91
2022-08-05T06:32:38.706Z,92208.31
2022-08-05T06:35:21.903Z,92223.31
2022-08-05T06:38:11.119Z,92217.28
2022-08-05T06:40:44.784Z,92216.53
2022-08-05T06:43:57.605Z,92219.75
2022-08-05T06:50:11.156Z,92224.75
2022-08-05T06:52:58.711Z,92217.56
2022-08-05T06:55:36.372Z,92216.53
2022-08-05T06:58:30.203Z,92218.03
2022-08-05T07:01:03.131Z,92222.25
2022-08-05T07:03:35.550Z,92216.19
2022-08-05T07:06:15.028Z,92213.88
2022-08-05T07:17:59.875Z,92225.97
2022-08-05T07:22:36.296Z,92225.59
2022-08-05T07:25:54.504Z,92219.84
2022-08-05T07:28:07.332Z,92231.19
2022-08-05T07:30:44.276Z,92227.66
2022-08-05T07:36:20.609Z,92230.59
2022-08-05T07:38:54.885Z,92229.75
2022-08-05T07:42:09.118Z,92226.59
2022-08-05T07:44:20.597Z,92230.34
2022-08-05T07:46:54.428Z,92230.22
2022-08-05T07:49:26.989Z,92233.59
2022-08-05T07:52:00.262Z,92225.69
2022-08-05T08:03:44.286Z,92229.81
2022-08-05T08:06:17.783Z,92236.25
2022-08-05T08:08:50.187Z,92237.50
2022-08-05T08:11:27.683Z,92241.59
2022-08-05T08:14:19.040Z,92237.69
2022-08-05T08:16:53.634Z,92238.72
2022-08-05T08:20:10.407Z,92233.81
2022-08-05T08:30:28.608Z,92238.69
2022-08-05T08:33:08.223Z,92236.63
2022-08-05T08:35:52.946Z,92233.44
2022-08-05T08:38:35.652Z,92240.94
2022-08-05T08:41:14.227Z,92233.25
2022-08-05T08:45:19.497Z,92234.72
2022-08-05T08:46:51.582Z,92234.50
2022-08-05T08:54:42.287Z,92231.28
2022-08-05T08:57:15.320Z,92238.03
2022-08-05T08:59:51.107Z,92233.97
2022-08-05T09:02:26.805Z,92230.72
2022-08-05T09:05:16.270Z,92238.94
2022-08-05T09:07:57.646Z,92230.91
2022-08-05T09:10:32.673Z,92233.09
2022-08-05T09:18:24.988Z,92225.44
2022-08-05T09:20:57.682Z,92218.59
2022-08-05T09:23:37.525Z,92215.06
2022-08-05T09:26:20.721Z,92220.28
2022-08-05T09:28:59.661Z,92217.97
2022-08-05T09:32:39.361Z,92215.88
2022-08-05T09:34:26.118Z,92216.38
2022-08-05T09:44:49.456Z,92198.16
2022-08-05T09:47:25.235Z,92188.06
2022-08-05T09:50:02.438Z,92194.97
2022-08-05T09:52:36.453Z,92186.84
2022-08-05T09:55:56.749Z,92191.84
2022-08-05T09:58:10.764Z,92190.56
2022-08-05T10:00:53.713Z,92186.25
2022-08-05T10:11:20.043Z,92165.69
2022-08-05T10:13:54.614Z,92174.78
2022-08-05T10:16:30.043Z,92167.22
2022-08-05T10:19:08.446Z,92176.53
2022-08-05T10:21:41.896Z,92173.41
2022-08-05T10:24:15.151Z,92173.81
2022-08-05T10:26:52.704Z,92167.44
2022-08-05T10:33:03.153Z,92170.19
2022-08-05T10:35:40.672Z,92164.81
2022-08-05T10:38:19.347Z,92176.66
2022-08-05T10:41:02.209Z,92169.13
2022-08-05T10:43:47.395Z,92167.34
2022-08-05T10:46:24.006Z,92161.75
2022-08-05T10:49:02.692Z,92155.47
2022-08-05T11:00:02.697Z,92149.28
2022-08-05T11:02:37.586Z,92143.31
2022-08-05T11:05:11.277Z,92140.72
2022-08-05T11:08:21.724Z,92139.81
2022-08-05T11:11:44.736Z,92140.34
2022-08-05T11:14:57.542Z,92142.47
2022-08-05T11:22:42.165Z,92133.38
2022-08-05T11:26:06.253Z,92129.66
2022-08-05T11:28:45.809Z,92138.44
2022-08-05T11:31:54.102Z,92135.69
2022-08-05T11:34:36.790Z,92137.09
2022-08-05T11:38:28.943Z,92132.44
2022-08-05T11:46:36.907Z,92113.81
2022-08-05T11:49:13.085Z,92127.94
2022-08-05T11:51:49.517Z,92115.91
2022-08-05T11:54:33.271Z,92122.63
2022-08-05T11:57:13.265Z,92120.22
2022-08-05T11:59:57.345Z,92111.03
2022-08-05T12:02:33.073Z,92121.25
2022-08-05T12:13:03.830Z,92124.13
2022-08-05T12:15:49.645Z,92116.56
2022-08-05T12:18:32.809Z,92120.56
2022-08-05T12:21:13.682Z,92109.66
2022-08-05T12:23:57.314Z,92107.94
2022-08-05T12:26:33.676Z,92109.47
2022-08-05T12:29:11.897Z,92109.84
2022-08-05T12:37:11.028Z,92092.63
2022-08-05T12:39:51.459Z,92097.16
2022-08-05T12:42:28.570Z,92092.28
2022-08-05T12:48:43.332Z,92084.25
2022-08-05T12:52:10.004Z,92085.78
2022-08-05T12:54:23.172Z,92079.75
2022-08-05T13:02:21.983Z,92062.88
2022-08-05T13:05:08.050Z,92066.81
2022-08-05T13:07:59.532Z,92065.19
2022-08-05T13:10:32.798Z,92059.19
2022-08-05T13:13:06.252Z,92061.72
2022-08-05T13:15:50.876Z,92058.56
2022-08-05T13:23:50.901Z,92047.78
2022-08-05T13:26:29.972Z,92044.34
2022-08-05T13:29:03.271Z,92041.31
2022-08-05T13:32:04.949Z,92046.94
2022-08-05T13:34:30.279Z,92043.22
2022-08-05T13:37:02.637Z,92048.00
2022-08-05T13:40:14.424Z,92046.44
2022-08-05T13:50:20.067Z,92039.38
2022-08-05T13:52:52.629Z,92044.94
2022-08-05T13:55:41.720Z,92039.38
2022-08-05T13:58:30.458Z,92041.25
2022-08-05T14:01:05.327Z,92033.97
2022-08-05T14:03:39.754Z,92033.16
2022-08-05T14:06:25.725Z,92031.13
2022-08-05T14:14:23.349Z,92031.47
2022-08-05T14:16:58.765Z,92027.44
2022-08-05T14:19:33.302Z,92021.22
2022-08-05T14:22:30.300Z,92026.28
2022-08-05T14:25:06.443Z,92025.28
2022-08-05T14:27:52.410Z,92018.22
2022-08-05T14:30:26.679Z,92020.19
2022-08-05T14:35:51.473Z,92014.81
2022-08-05T14:38:32.624Z,92017.06
2022-08-05T14:41:07.875Z,92015.66
2022-08-05T14:43:57.778Z,92006.13
2022-08-05T14:46:35.392Z,92004.41
2022-08-05T14:49:08.336Z,92002.53
2022-08-05T14:51:42.436Z,92004.72
2022-08-05T14:57:09.818Z,91996.56
2022-08-05T14:59:46.263Z,91997.25
2022-08-05T15:02:21.953Z,91991.69
2022-08-05T15:04:54.390Z,91998.53
2022-08-05T15:08:08.865Z,91989.94
2022-08-05T15:10:19.528Z,91989.78
2022-08-05T15:13:04.679Z,91979.91
2022-08-05T15:21:07.737Z,91987.66
2022-08-05T15:23:40.618Z,91987.66
2022-08-05T15:26:14.724Z,91986.81
2022-08-05T15:28:47.766Z,91983.03
2022-08-05T15:31:24.507Z,91979.09
2022-08-05T15:34:31.666Z,91975.75
2022-08-05T15:37:06.434Z,91973.38
2022-08-05T15:45:07.143Z,91965.00
2022-08-05T15:47:43.857Z,91970.28
2022-08-05T15:50:16.434Z,91968.00
2022-08-05T15:52:54.245Z,91965.16
2022-08-05T15:56:02.961Z,91968.75
2022-08-05T15:58:23.265Z,91959.59
2022-08-05T16:01:11.626Z,91966.50
2022-08-05T16:09:08.459Z,91965.25
2022-08-05T16:11:43.577Z,91966.25
2022-08-05T16:14:17.042Z,91964.34
2022-08-05T16:16:50.214Z,91966.84
2022-08-05T16:20:03.489Z,91965.16
2022-08-05T16:22:15.339Z,91966.09
2022-08-05T16:24:51.791Z,91966.66
2022-08-05T16:30:26.513Z,91973.28
2022-08-05T16:33:02.034Z,91974.38
2022-08-05T16:35:42.485Z,91972.94
2022-08-05T16:38:24.940Z,91972.84
2022-08-05T16:41:01.680Z,91974.66
2022-08-05T16:43:35.071Z,91977.09
2022-08-05T16:46:23.859Z,91978.75
2022-08-05T16:49:29.267Z,91982.59
2022-08-05T16:52:01.723Z,91987.56
2022-08-05T16:54:35.324Z,91982.38
2022-08-05T16:57:22.193Z,91978.59
2022-08-05T17:00:04.559Z,91986.38
2022-08-05T17:02:42.049Z,91989.28
2022-08-05T17:05:14.406Z,91983.63
2022-08-05T17:07:54.529Z,91978.06
2022-08-05T17:10:30.501Z,91985.69
2022-08-05T17:13:03.142Z,91991.13
2022-08-05T17:15:47.953Z,91987.34
2022-08-05T17:18:24.173Z,91985.88
2022-08-05T17:20:56.544Z,91995.09
2022-08-05T17:24:04.425Z,91995.16
2022-08-05T17:26:21.595Z,91990.63
2022-08-05T17:28:55.968Z,92000.25
2022-08-05T17:31:57.112Z,91997.28
2022-08-05T17:34:30.262Z,92002.75
2022-08-05T17:37:16.935Z,92003.63
2022-08-05T17:40:00.939Z,92002.31
2022-08-05T17:42:33.861Z,92002.47
2022-08-05T17:45:20.055Z,92006.44
2022-08-05T17:47:55.969Z,91998.38
2022-08-05T17:50:30.417Z,92004.22
2022-08-05T17:53:04.774Z,92002.34
2022-08-05T17:55:39.913Z,92002.81
2022-08-05T17:58:13.780Z,92005.25
2022-08-05T18:00:50.749Z,92007.66
2022-08-05T18:03:59.009Z,92008.06
2022-08-05T18:06:17.436Z,92007.41
2022-08-05T18:08:52.593Z,92007.19
2022-08-05T18:11:33.245Z,92008.41
2022-08-05T18:14:06.997Z,92014.97
2022-08-05T18:16:51.171Z,92009.34
2022-08-05T18:19:25.991Z,92011.41
2022-08-05T18:22:09.354Z,92007.28
2022-08-05T18:24:43.852Z,92015.69
2022-08-05T18:27:18.509Z,92017.66
2022-08-05T18:29:54.489Z,92017.31
2022-08-05T18:32:28.179Z,92017.34
2022-08-05T18:35:01.877Z,92012.81
2022-08-05T18:37:40.258Z,92019.03
2022-08-05T18:41:50.741Z,92018.66
2022-08-05T18:43:08.894Z,92016.03
2022-08-05T18:45:48.622Z,92024.13
2022-08-05T18:48:54.910Z,92025.72
2022-08-05T18:52:05.876Z,92024.25
2022-08-05T18:54:41.181Z,92026.66
2022-08-05T18:57:19.056Z,92029.34
2022-08-05T19:00:02.354Z,92021.78
2022-08-05T19:02:38.310Z,92029.91
2022-08-05T19:06:11.728Z,92024.97
2022-08-05T19:08:06.815Z,92032.72
2022-08-05T19:10:46.702Z,92037.28
2022-08-05T19:13:19.731Z,92035.00
2022-08-05T19:15:59.246Z,92027.81
2022-08-05T19:18:35.836Z,92034.69
2022-08-05T19:21:12.132Z,92031.25
2022-08-05T19:24:06.210Z,92027.88
2022-08-05T19:26:54.834Z,92027.47
2022-08-05T19:29:36.327Z,92017.94
2022-08-05T19:32:11.340Z,92018.75
2022-08-05T19:34:54.885Z,92019.53
2022-08-05T19:37:29.812Z,92021.44
2022-08-05T19:40:10.180Z,92022.56
2022-08-05T19:43:04.510Z,92026.09
2022-08-05T19:45:37.195Z,92026.06
2022-08-05T19:48:14.576Z,92020.31
2022-08-05T19:50:47.131Z,92016.94
2022-08-05T19:54:04.942Z,92026.09
2022-08-05T19:56:20.533Z,92024.94
2022-08-05T19:59:55.009Z,92022.72
2022-08-05T20:02:01.029Z,92025.38
2022-08-05T20:04:35.303Z,92030.34
2022-08-05T20:07:10.405Z,92030.72
2022-08-05T20:09:55.169Z,92027.31
2022-08-05T20:12:29.070Z,92025.03
2022-08-05T20:15:02.136Z,92020.47
2022-08-05T20:17:35.018Z,92025.44
2022-08-05T20:20:11.129Z,92021.59
2022-08-05T20:22:44.193Z,92020.50
2022-08-05T20:25:19.431Z,92025.88
2022-08-05T20:27:55.730Z,92021.34
2022-08-05T20:30:30.739Z,92024.75
2022-08-05T20:33:03.271Z,92021.72
2022-08-05T20:35:40.657Z,92018.31
2022-08-05T20:38:26.827Z,92024.41
2022-08-05T20:41:00.253Z,92016.44
2022-08-05T20:43:58.762Z,92020.63
2022-08-05T20:46:30.658Z,92020.22
2022-08-05T20:49:04.195Z,92018.69
2022-08-05T20:51:38.788Z,92006.91
2022-08-05T20:54:14.221Z,92018.75
2022-08-05T20:56:46.726Z,92015.69
2022-08-05T20:59:26.956Z,92017.25
2022-08-05T21:02:18.122Z,92012.31
2022-08-05T21:04:50.585Z,92008.13
2022-08-05T21:07:24.059Z,92009.28
2022-08-05T21:09:57.687Z,92012.75
2022-08-05T21:12:30.230Z,92005.84
2022-08-05T21:15:02.721Z,92011.22
2022-08-05T21:17:36.736Z,92010.84
2022-08-05T21:20:10.755Z,92011.25
2022-08-05T21:22:43.240Z,91999.88
2022-08-05T21:25:15.675Z,92005.59
2022-08-05T21:27:48.091Z,92010.16
2022-08-05T21:30:25.302Z,92009.38
2022-08-05T21:32:59.221Z,92012.44
2022-08-05T21:35:55.492Z,92011.31
2022-08-05T21:38:26.638Z,92004.47
2022-08-05T21:40:59.067Z,92012.06
2022-08-05T21:43:33.613Z,92018.91
2022-08-05T21:46:14.284Z,92013.94
2022-08-05T21:48:47.506Z,92010.47
2022-08-05T21:52:16.386Z,92013.09
2022-08-05T21:54:14.280Z,92014.25
2022-08-05T21:56:51.488Z,92007.38
2022-08-05T21:59:37.763Z,92012.31
2022-08-05T22:02:19.948Z,92007.72
2022-08-05T22:04:57.439Z,92014.88
2022-08-05T22:07:39.994Z,92003.84
2022-08-05T22:10:26.507Z,92011.72
2022-08-05T22:13:08.692Z,92011.28
2022-08-05T22:16:00.445Z,92003.66
2022-08-05T22:18:39.054Z,92004.31
2022-08-05T22:21:19.124Z,92002.00
2022-08-05T22:24:13.313Z,91995.91
2022-08-05T22:27:26.403Z,91999.66
2022-08-05T22:30:18.964Z,91998.41
2022-08-05T22:32:52.367Z,91992.69
2022-08-05T22:35:31.116Z,92001.72
2022-08-05T22:38:20.879Z,91996.78
2022-08-05T22:40:54.884Z,91992.97
2022-08-05T22:43:37.155Z,91987.59
2022-08-05T22:46:13.366Z,91984.88
2022-08-05T22:48:53.296Z,91987.91
2022-08-05T22:52:02.731Z,91987.47
2022-08-05T22:54:18.895Z,91988.53
2022-08-05T22:56:56.008Z,91982.38
2022-08-05T22:59:48.468Z,91985.00
2022-08-05T23:02:29.226Z,91982.66
2022-08-05T23:05:04.856Z,91987.97
2022-08-05T23:07:48.280Z,91981.16
2022-08-05T23:10:23.458Z,91986.72
2022-08-05T23:12:56.665Z,91981.66
2022-08-05T23:15:34.966Z,91981.25
2022-08-05T23:18:11.832Z,91982.69
2022-08-05T23:20:48.678Z,91983.00
2022-08-05T23:23:21.613Z,91993.56
2022-08-05T23:25:55.697Z,91985.25
2022-08-05T23:28:29.507Z,91983.75
2022-08-05T23:31:17.412Z,91986.59
2022-08-05T23:34:05.253Z,91976.75
2022-08-05T23:36:44.244Z,91981.22
2022-08-05T23:39:32.114Z,91984.22
2022-08-05T23:42:14.507Z,91983.38
2022-08-05T23:44:47.296Z,91984.69
2022-08-05T23:47:27.183Z,91986.22
2022-08-05T23:49:59.755Z,91980.44
2022-08-05T23:52:50.476Z,91986.81
2022-08-05T23:55:30.870Z,91984.09
2022-08-05T23:58:04.628Z,91986.66
